sensor_id;sensor_type;location;lat;lon;timestamp;pressure;altitude;pressure_sealevel;temperature;humidity
71465;BME280;59274;49.874;9.154;2024-01-06T00:01:35;99137.69;;;3.05;100.00
71465;BME280;59274;49.874;9.154;2024-01-06T00:04:01;99128.75;;;3.01;100.00
71465;BME280;59274;49.874;9.154;2024-01-06T00:06:26;99127.19;;;3.00;100.00
71465;BME280;59274;49.874;9.154;2024-01-06T00:08:52;99138.66;;;2.97;100.00
71465;BME280;59274;49.874;9.154;2024-01-06T00:11:22;99140.09;;;2.94;100.00
71465;BME280;59274;49.874;9.154;2024-01-06T00:13:48;99142.00;;;2.94;100.00
71465;BME280;59274;49.874;9.154;2024-01-06T00:16:17;99139.94;;;2.87;100.00
71465;BME280;59274;49.874;9.154;2024-01-06T00:18:44;99139.88;;;2.84;100.00
71465;BME280;59274;49.874;9.154;2024-01-06T00:21:10;99150.66;;;2.71;100.00
71465;BME280;59274;49.874;9.154;2024-01-06T00:23:35;99153.09;;;2.77;100.00
71465;BME280;59274;49.874;9.154;2024-01-06T00:26:01;99146.34;;;2.83;100.00
71465;BME280;59274;49.874;9.154;2024-01-06T00:28:27;99150.94;;;2.82;100.00
71465;BME280;59274;49.874;9.154;2024-01-06T00:30:53;99151.28;;;2.81;100.00
71465;BME280;59274;49.874;9.154;2024-01-06T00:33:18;99154.56;;;2.74;100.00
71465;BME280;59274;49.874;9.154;2024-01-06T00:35:44;99150.25;;;2.69;100.00
71465;BME280;59274;49.874;9.154;2024-01-06T00:38:09;99153.72;;;2.54;100.00
71465;BME280;59274;49.874;9.154;2024-01-06T00:40:35;99140.47;;;2.61;100.00
71465;BME280;59274;49.874;9.154;2024-01-06T00:43:00;99149.81;;;2.67;100.00
71465;BME280;59274;49.874;9.154;2024-01-06T00:45:26;99150.94;;;2.66;100.00
71465;BME280;59274;49.874;9.154;2024-01-06T00:47:51;99143.56;;;2.63;100.00
71465;BME280;59274;49.874;9.154;2024-01-06T00:50:18;99143.06;;;2.58;100.00
71465;BME280;59274;49.874;9.154;2024-01-06T00:52:44;99156.00;;;2.56;100.00
71465;BME280;59274;49.874;9.154;2024-01-06T00:55:10;99149.97;;;2.59;100.00
71465;BME280;59274;49.874;9.154;2024-01-06T00:57:35;99150.88;;;2.63;100.00
71465;BME280;59274;49.874;9.154;2024-01-06T01:00:03;99150.75;;;2.59;100.00
71465;BME280;59274;49.874;9.154;2024-01-06T01:02:28;99150.25;;;2.69;100.00
71465;BME280;59274;49.874;9.154;2024-01-06T01:04:54;99145.75;;;2.73;100.00
71465;BME280;59274;49.874;9.154;2024-01-06T01:07:19;99154.13;;;2.88;100.00
71465;BME280;59274;49.874;9.154;2024-01-06T01:09:45;99154.13;;;2.88;100.00
71465;BME280;59274;49.874;9.154;2024-01-06T01:12:10;99153.09;;;2.77;100.00
71465;BME280;59274;49.874;9.154;2024-01-06T01:14:36;99167.69;;;2.79;100.00
71465;BME280;59274;49.874;9.154;2024-01-06T01:17:02;99155.00;;;2.76;100.00
71465;BME280;59274;49.874;9.154;2024-01-06T01:19:27;99165.56;;;2.69;100.00
71465;BME280;59274;49.874;9.154;2024-01-06T01:21:53;99167.88;;;2.70;100.00
71465;BME280;59274;49.874;9.154;2024-01-06T01:24:21;99163.47;;;2.62;100.00
71465;BME280;59274;49.874;9.154;2024-01-06T01:26:47;99169.25;;;2.64;100.00
71465;BME280;59274;49.874;9.154;2024-01-06T01:29:13;99175.75;;;2.48;100.00
71465;BME280;59274;49.874;9.154;2024-01-06T01:31:38;99174.25;;;2.50;100.00
71465;BME280;59274;49.874;9.154;2024-01-06T01:34:04;99176.59;;;2.52;100.00
71465;BME280;59274;49.874;9.154;2024-01-06T01:36:30;99165.25;;;2.43;100.00
71465;BME280;59274;49.874;9.154;2024-01-06T01:38:55;99174.78;;;2.40;100.00
71465;BME280;59274;49.874;9.154;2024-01-06T01:41:21;99174.84;;;2.44;100.00
71465;BME280;59274;49.874;9.154;2024-01-06T01:43:46;99174.50;;;2.45;100.00
71465;BME280;59274;49.874;9.154;2024-01-06T01:46:12;99181.28;;;2.55;100.00
71465;BME280;59274;49.874;9.154;2024-01-06T01:48:38;99189.72;;;2.57;100.00
71465;BME280;59274;49.874;9.154;2024-01-06T01:51:04;99186.72;;;2.58;100.00
71465;BME280;59274;49.874;9.154;2024-01-06T01:53:31;99187.06;;;2.57;100.00
71465;BME280;59274;49.874;9.154;2024-01-06T01:55:57;99190.84;;;2.56;100.00
71465;BME280;59274;49.874;9.154;2024-01-06T01:58:23;99193.13;;;2.69;100.00
71465;BME280;59274;49.874;9.154;2024-01-06T02:00:49;99188.38;;;2.79;100.00
71465;BME280;59274;49.874;9.154;2024-01-06T02:03:15;99197.78;;;2.72;100.00
71465;BME280;59274;49.874;9.154;2024-01-06T02:05:41;99197.63;;;2.81;100.00
71465;BME280;59274;49.874;9.154;2024-01-06T02:08:06;99203.78;;;2.82;100.00
71465;BME280;59274;49.874;9.154;2024-01-06T02:10:32;99202.47;;;2.75;100.00
71465;BME280;59274;49.874;9.154;2024-01-06T02:13:07;99204.44;;;2.79;100.00
71465;BME280;59274;49.874;9.154;2024-01-06T02:15:33;99204.63;;;2.86;100.00
71465;BME280;59274;49.874;9.154;2024-01-06T02:17:58;99207.41;;;2.89;100.00
71465;BME280;59274;49.874;9.154;2024-01-06T02:20:24;99199.72;;;2.88;100.00
71465;BME280;59274;49.874;9.154;2024-01-06T02:22:50;99199.72;;;2.88;100.00
71465;BME280;59274;49.874;9.154;2024-01-06T02:25:16;99203.59;;;2.90;100.00
71465;BME280;59274;49.874;9.154;2024-01-06T02:27:43;99208.97;;;2.90;100.00
71465;BME280;59274;49.874;9.154;2024-01-06T02:30:09;99203.41;;;2.99;100.00
71465;BME280;59274;49.874;9.154;2024-01-06T02:32:34;99206.47;;;2.97;100.00
71465;BME280;59274;49.874;9.154;2024-01-06T02:35:00;99208.59;;;3.07;100.00
71465;BME280;59274;49.874;9.154;2024-01-06T02:37:25;99217.59;;;3.15;100.00
71465;BME280;59274;49.874;9.154;2024-01-06T02:39:52;99212.06;;;3.08;100.00
71465;BME280;59274;49.874;9.154;2024-01-06T02:42:18;99208.53;;;3.04;100.00
71465;BME280;59274;49.874;9.154;2024-01-06T02:44:44;99204.72;;;3.05;100.00
71465;BME280;59274;49.874;9.154;2024-01-06T02:47:12;99207.41;;;3.05;100.00
71465;BME280;59274;49.874;9.154;2024-01-06T02:49:38;99204.72;;;3.05;100.00
71465;BME280;59274;49.874;9.154;2024-01-06T02:52:03;99209.22;;;3.01;100.00
71465;BME280;59274;49.874;9.154;2024-01-06T02:54:29;99218.75;;;2.98;100.00
71465;BME280;59274;49.874;9.154;2024-01-06T02:56:55;99214.56;;;2.85;100.00
71465;BME280;59274;49.874;9.154;2024-01-06T02:59:20;99233.44;;;2.89;100.00
71465;BME280;59274;49.874;9.154;2024-01-06T03:01:46;99233.44;;;2.89;100.00
71465;BME280;59274;49.874;9.154;2024-01-06T03:04:11;99234.66;;;2.75;100.00
71465;BME280;59274;49.874;9.154;2024-01-06T03:06:37;99233.00;;;2.87;100.00
71465;BME280;59274;49.874;9.154;2024-01-06T03:09:02;99229.63;;;2.90;100.00
71465;BME280;59274;49.874;9.154;2024-01-06T03:11:28;99238.38;;;3.02;100.00
71465;BME280;59274;49.874;9.154;2024-01-06T03:13:53;99235.75;;;3.06;100.00
71465;BME280;59274;49.874;9.154;2024-01-06T03:16:19;99238.09;;;3.07;100.00
71465;BME280;59274;49.874;9.154;2024-01-06T03:18:44;99234.81;;;3.14;100.00
71465;BME280;59274;49.874;9.154;2024-01-06T03:21:19;99234.97;;;3.21;100.00
71465;BME280;59274;49.874;9.154;2024-01-06T03:23:45;99245.47;;;3.26;100.00
71465;BME280;59274;49.874;9.154;2024-01-06T03:26:10;99243.28;;;3.32;100.00
71465;BME280;59274;49.874;9.154;2024-01-06T03:28:36;99240.34;;;3.37;100.00
71465;BME280;59274;49.874;9.154;2024-01-06T03:31:02;99255.47;;;3.45;100.00
71465;BME280;59274;49.874;9.154;2024-01-06T03:33:27;99242.84;;;3.45;100.00
71465;BME280;59274;49.874;9.154;2024-01-06T03:35:53;99247.06;;;3.62;100.00
71465;BME280;59274;49.874;9.154;2024-01-06T03:38:18;99250.34;;;3.55;100.00
71465;BME280;59274;49.874;9.154;2024-01-06T03:40:44;99248.88;;;3.58;100.00
71465;BME280;59274;49.874;9.154;2024-01-06T03:43:09;99246.53;;;3.57;100.00
71465;BME280;59274;49.874;9.154;2024-01-06T03:45:34;99241.69;;;3.62;100.00
71465;BME280;59274;49.874;9.154;2024-01-06T03:48:00;99239.41;;;3.64;100.00
71465;BME280;59274;49.874;9.154;2024-01-06T03:50:25;99245.56;;;3.65;100.00
71465;BME280;59274;49.874;9.154;2024-01-06T03:52:50;99245.22;;;3.66;100.00
71465;BME280;59274;49.874;9.154;2024-01-06T03:55:16;99239.50;;;3.68;100.00
71465;BME280;59274;49.874;9.154;2024-01-06T03:57:42;99245.72;;;3.72;100.00
71465;BME280;59274;49.874;9.154;2024-01-06T04:00:09;99243.81;;;3.72;100.00
71465;BME280;59274;49.874;9.154;2024-01-06T04:02:34;99253.44;;;3.73;100.00
71465;BME280;59274;49.874;9.154;2024-01-06T04:05:00;99260.44;;;3.78;100.00
71465;BME280;59274;49.874;9.154;2024-01-06T04:07:25;99258.03;;;3.73;100.00
71465;BME280;59274;49.874;9.154;2024-01-06T04:09:50;99259.41;;;3.82;100.00
71465;BME280;59274;49.874;9.154;2024-01-06T04:12:16;99258.69;;;3.85;100.00
71465;BME280;59274;49.874;9.154;2024-01-06T04:14:41;99264.13;;;3.89;100.00
71465;BME280;59274;49.874;9.154;2024-01-06T04:17:07;99259.25;;;3.94;100.00
71465;BME280;59274;49.874;9.154;2024-01-06T04:19:32;99264.81;;;3.86;100.00
71465;BME280;59274;49.874;9.154;2024-01-06T04:21:59;99261.59;;;3.96;100.00
71465;BME280;59274;49.874;9.154;2024-01-06T04:24:24;99263.97;;;3.82;100.00
71465;BME280;59274;49.874;9.154;2024-01-06T04:26:50;99258.63;;;3.82;100.00
71465;BME280;59274;49.874;9.154;2024-01-06T04:29:15;99262.63;;;3.91;100.00
71465;BME280;59274;49.874;9.154;2024-01-06T04:31:41;99262.44;;;4.00;100.00
71465;BME280;59274;49.874;9.154;2024-01-06T04:34:06;99266.19;;;3.96;100.00
71465;BME280;59274;49.874;9.154;2024-01-06T04:36:32;99265.06;;;3.97;100.00
71465;BME280;59274;49.874;9.154;2024-01-06T04:38:57;99266.63;;;3.98;100.00
71465;BME280;59274;49.874;9.154;2024-01-06T04:41:23;99262.88;;;4.02;100.00
71465;BME280;59274;49.874;9.154;2024-01-06T04:43:48;99257.41;;;3.99;100.00
71465;BME280;59274;49.874;9.154;2024-01-06T04:46:13;99261.31;;;3.82;100.00
71465;BME280;59274;49.874;9.154;2024-01-06T04:48:41;99255.13;;;3.62;100.00
71465;BME280;59274;49.874;9.154;2024-01-06T04:51:06;99258.22;;;3.64;100.00
71465;BME280;59274;49.874;9.154;2024-01-06T04:53:35;99255.00;;;3.74;100.00
71465;BME280;59274;49.874;9.154;2024-01-06T04:56:01;99251.97;;;3.76;100.00
71465;BME280;59274;49.874;9.154;2024-01-06T04:58:27;99256.19;;;3.77;100.00
71465;BME280;59274;49.874;9.154;2024-01-06T05:00:52;99264.81;;;3.86;100.00
71465;BME280;59274;49.874;9.154;2024-01-06T05:03:18;99263.69;;;3.87;100.00
71465;BME280;59274;49.874;9.154;2024-01-06T05:05:43;99254.72;;;3.99;100.00
71465;BME280;59274;49.874;9.154;2024-01-06T05:08:09;99255.25;;;4.04;100.00
71465;BME280;59274;49.874;9.154;2024-01-06T05:10:34;99254.03;;;4.02;100.00
71465;BME280;59274;49.874;9.154;2024-01-06T05:13:00;99254.31;;;3.97;100.00
71465;BME280;59274;49.874;9.154;2024-01-06T05:15:26;99253.25;;;4.01;100.00
71465;BME280;59274;49.874;9.154;2024-01-06T05:17:52;99256.63;;;3.98;100.00
71465;BME280;59274;49.874;9.154;2024-01-06T05:20:17;99256.03;;;4.05;100.00
71465;BME280;59274;49.874;9.154;2024-01-06T05:22:43;99263.03;;;4.09;100.00
71465;BME280;59274;49.874;9.154;2024-01-06T05:25:08;99263.31;;;4.04;100.00
71465;BME280;59274;49.874;9.154;2024-01-06T05:27:34;99260.63;;;4.04;100.00
71465;BME280;59274;49.874;9.154;2024-01-06T05:30:00;99265.78;;;4.13;100.00
71465;BME280;59274;49.874;9.154;2024-01-06T05:32:25;99272.34;;;4.15;100.00
71465;BME280;59274;49.874;9.154;2024-01-06T05:34:50;99274.91;;;4.27;100.00
71465;BME280;59274;49.874;9.154;2024-01-06T05:37:16;99275.97;;;4.23;100.00
71465;BME280;59274;49.874;9.154;2024-01-06T05:39:41;99283.41;;;4.29;100.00
71465;BME280;59274;49.874;9.154;2024-01-06T05:42:09;99287.22;;;4.28;100.00
71465;BME280;59274;49.874;9.154;2024-01-06T05:44:37;99293.03;;;4.30;100.00
71465;BME280;59274;49.874;9.154;2024-01-06T05:47:03;99294.28;;;4.37;100.00
71465;BME280;59274;49.874;9.154;2024-01-06T05:49:29;99294.44;;;4.44;100.00
71465;BME280;59274;49.874;9.154;2024-01-06T05:51:54;99299.75;;;4.40;100.00
71465;BME280;59274;49.874;9.154;2024-01-06T05:54:19;99301.56;;;4.36;100.00
71465;BME280;59274;49.874;9.154;2024-01-06T05:56:45;99305.03;;;4.37;100.00
71465;BME280;59274;49.874;9.154;2024-01-06T05:59:10;99305.81;;;4.37;100.00
71465;BME280;59274;49.874;9.154;2024-01-06T06:01:36;99314.22;;;4.36;100.00
71465;BME280;59274;49.874;9.154;2024-01-06T06:04:01;99312.03;;;4.41;100.00
71465;BME280;59274;49.874;9.154;2024-01-06T06:06:27;99308.22;;;4.42;100.00
71465;BME280;59274;49.874;9.154;2024-01-06T06:08:52;99312.41;;;4.40;100.00
71465;BME280;59274;49.874;9.154;2024-01-06T06:11:17;99316.38;;;4.46;100.00
71465;BME280;59274;49.874;9.154;2024-01-06T06:13:43;99313.34;;;4.47;100.00
71465;BME280;59274;49.874;9.154;2024-01-06T06:16:09;99326.34;;;4.45;100.00
71465;BME280;59274;49.874;9.154;2024-01-06T06:18:35;99321.75;;;4.46;100.00
71465;BME280;59274;49.874;9.154;2024-01-06T06:21:01;99330.72;;;4.53;100.00
71465;BME280;59274;49.874;9.154;2024-01-06T06:23:28;99328.41;;;4.52;100.00
71465;BME280;59274;49.874;9.154;2024-01-06T06:25:54;99327.31;;;4.56;100.00
71465;BME280;59274;49.874;9.154;2024-01-06T06:28:19;99323.00;;;4.52;100.00
71465;BME280;59274;49.874;9.154;2024-01-06T06:30:45;99325.34;;;4.53;100.00
71465;BME280;59274;49.874;9.154;2024-01-06T06:33:10;99329.31;;;4.59;100.00
71465;BME280;59274;49.874;9.154;2024-01-06T06:35:36;99328.44;;;4.55;100.00
71465;BME280;59274;49.874;9.154;2024-01-06T06:38:01;99326.84;;;4.51;100.00
71465;BME280;59274;49.874;9.154;2024-01-06T06:40:27;99331.91;;;4.37;100.00
71465;BME280;59274;49.874;9.154;2024-01-06T06:42:54;99333.19;;;4.23;100.00
71465;BME280;59274;49.874;9.154;2024-01-06T06:45:19;99336.72;;;4.27;100.00
71465;BME280;59274;49.874;9.154;2024-01-06T06:47:48;99334.13;;;4.31;100.00
71465;BME280;59274;49.874;9.154;2024-01-06T06:50:17;99351.56;;;4.41;100.00
71465;BME280;59274;49.874;9.154;2024-01-06T06:52:43;99356.41;;;4.31;100.00
71465;BME280;59274;49.874;9.154;2024-01-06T06:55:09;99358.94;;;4.44;100.00
71465;BME280;59274;49.874;9.154;2024-01-06T06:57:35;99365.88;;;4.45;100.00
71465;BME280;59274;49.874;9.154;2024-01-06T07:00:01;99370.13;;;4.46;100.00
71465;BME280;59274;49.874;9.154;2024-01-06T07:02:26;99377.56;;;4.52;100.00
71465;BME280;59274;49.874;9.154;2024-01-06T07:04:51;99383.56;;;4.46;100.00
71465;BME280;59274;49.874;9.154;2024-01-06T07:07:17;99381.53;;;4.58;100.00
71465;BME280;59274;49.874;9.154;2024-01-06T07:09:42;99384.50;;;4.53;100.00
71465;BME280;59274;49.874;9.154;2024-01-06T07:12:08;99388.81;;;4.58;100.00
71465;BME280;59274;49.874;9.154;2024-01-06T07:14:33;99391.94;;;4.60;100.00
71465;BME280;59274;49.874;9.154;2024-01-06T07:16:59;99395.31;;;4.57;100.00
71465;BME280;59274;49.874;9.154;2024-01-06T07:19:24;99398.97;;;4.49;100.00
71465;BME280;59274;49.874;9.154;2024-01-06T07:21:50;99404.16;;;4.57;100.00
71465;BME280;59274;49.874;9.154;2024-01-06T07:24:15;99401.75;;;4.52;100.00
71465;BME280;59274;49.874;9.154;2024-01-06T07:26:40;99409.88;;;4.56;100.00
71465;BME280;59274;49.874;9.154;2024-01-06T07:29:06;99414.56;;;4.59;100.00
71465;BME280;59274;49.874;9.154;2024-01-06T07:31:33;99413.59;;;4.67;100.00
71465;BME280;59274;49.874;9.154;2024-01-06T07:33:59;99415.00;;;4.61;100.00
71465;BME280;59274;49.874;9.154;2024-01-06T07:36:24;99416.69;;;4.69;100.00
71465;BME280;59274;49.874;9.154;2024-01-06T07:38:50;99419.91;;;4.75;100.00
71465;BME280;59274;49.874;9.154;2024-01-06T07:41:17;99426.91;;;4.79;100.00
71465;BME280;59274;49.874;9.154;2024-01-06T07:43:42;99429.59;;;4.79;100.00
71465;BME280;59274;49.874;9.154;2024-01-06T07:46:08;99426.28;;;4.86;100.00
71465;BME280;59274;49.874;9.154;2024-01-06T07:48:35;99434.78;;;4.88;100.00
71465;BME280;59274;49.874;9.154;2024-01-06T07:51:01;99440.66;;;4.93;100.00
71465;BME280;59274;49.874;9.154;2024-01-06T07:53:27;99440.66;;;4.93;100.00
71465;BME280;59274;49.874;9.154;2024-01-06T07:55:53;99438.72;;;4.94;100.00
71465;BME280;59274;49.874;9.154;2024-01-06T07:58:18;99435.34;;;4.97;100.00
71465;BME280;59274;49.874;9.154;2024-01-06T08:00:44;99446.16;;;5.00;100.00
71465;BME280;59274;49.874;9.154;2024-01-06T08:03:09;99456.78;;;4.93;100.00
71465;BME280;59274;49.874;9.154;2024-01-06T08:05:36;99452.53;;;4.92;100.00
71465;BME280;59274;49.874;9.154;2024-01-06T08:08:03;99462.75;;;5.02;100.00
71465;BME280;59274;49.874;9.154;2024-01-06T08:10:29;99458.16;;;5.03;100.00
71465;BME280;59274;49.874;9.154;2024-01-06T08:12:55;99459.81;;;4.92;100.00
71465;BME280;59274;49.874;9.154;2024-01-06T08:15:20;99464.84;;;4.93;100.00
71465;BME280;59274;49.874;9.154;2024-01-06T08:17:46;99466.75;;;4.93;100.00
71465;BME280;59274;49.874;9.154;2024-01-06T08:20:12;99465.69;;;4.97;100.00
71465;BME280;59274;49.874;9.154;2024-01-06T08:22:38;99469.94;;;4.98;100.00
71465;BME280;59274;49.874;9.154;2024-01-06T08:25:04;99470.31;;;4.97;100.00
71465;BME280;59274;49.874;9.154;2024-01-06T08:27:31;99475.31;;;4.98;100.00
71465;BME280;59274;49.874;9.154;2024-01-06T08:29:57;99477.97;;;4.95;100.00
71465;BME280;59274;49.874;9.154;2024-01-06T08:32:22;99485.25;;;4.94;100.00
71465;BME280;59274;49.874;9.154;2024-01-06T08:34:48;99483.34;;;4.95;100.00
71465;BME280;59274;49.874;9.154;2024-01-06T08:37:13;99487.31;;;5.01;100.00
71465;BME280;59274;49.874;9.154;2024-01-06T08:39:39;99486.47;;;5.16;100.00
71465;BME280;59274;49.874;9.154;2024-01-06T08:42:05;99477.47;;;5.28;100.00
71465;BME280;59274;49.874;9.154;2024-01-06T08:44:30;99487.59;;;5.34;100.00
71465;BME280;59274;49.874;9.154;2024-01-06T08:46:56;99489.44;;;5.30;100.00
71465;BME280;59274;49.874;9.154;2024-01-06T08:49:21;99499.56;;;5.37;100.00
71465;BME280;59274;49.874;9.154;2024-01-06T08:51:47;99506.50;;;5.38;100.00
71465;BME280;59274;49.874;9.154;2024-01-06T08:54:13;99505.38;;;5.39;100.00
71465;BME280;59274;49.874;9.154;2024-01-06T08:56:38;99513.72;;;5.34;100.00
71465;BME280;59274;49.874;9.154;2024-01-06T08:59:04;99509.22;;;5.38;100.00
71465;BME280;59274;49.874;9.154;2024-01-06T09:01:30;99514.59;;;5.38;100.00
71465;BME280;59274;49.874;9.154;2024-01-06T09:03:57;99517.00;;;5.43;100.00
71465;BME280;59274;49.874;9.154;2024-01-06T09:06:23;99517.44;;;5.45;100.00
71465;BME280;59274;49.874;9.154;2024-01-06T09:08:48;99515.31;;;5.54;100.00
71465;BME280;59274;49.874;9.154;2024-01-06T09:11:13;99518.41;;;5.56;100.00
71465;BME280;59274;49.874;9.154;2024-01-06T09:13:39;99528.38;;;5.56;100.00
71465;BME280;59274;49.874;9.154;2024-01-06T09:16:05;99532.63;;;5.57;100.00
71465;BME280;59274;49.874;9.154;2024-01-06T09:18:30;99527.56;;;5.51;100.00
71465;BME280;59274;49.874;9.154;2024-01-06T09:20:57;99534.56;;;5.56;100.00
71465;BME280;59274;49.874;9.154;2024-01-06T09:23:22;99537.19;;;5.53;100.00
71465;BME280;59274;49.874;9.154;2024-01-06T09:25:48;99534.84;;;5.51;100.00
71465;BME280;59274;49.874;9.154;2024-01-06T09:28:17;99532.72;;;5.60;100.00
71465;BME280;59274;49.874;9.154;2024-01-06T09:30:45;99537.69;;;5.58;100.00
71465;BME280;59274;49.874;9.154;2024-01-06T09:33:11;99541.59;;;5.61;100.00
71465;BME280;59274;49.874;9.154;2024-01-06T09:35:40;99542.63;;;5.75;100.00
71465;BME280;59274;49.874;9.154;2024-01-06T09:38:06;99545.34;;;5.75;100.00
71465;BME280;59274;49.874;9.154;2024-01-06T09:40:33;99536.59;;;5.82;100.00
71465;BME280;59274;49.874;9.154;2024-01-06T09:42:59;99542.94;;;5.89;100.00
71465;BME280;59274;49.874;9.154;2024-01-06T09:45:25;99543.75;;;5.94;100.00
71465;BME280;59274;49.874;9.154;2024-01-06T09:47:51;99551.53;;;5.99;100.00
71465;BME280;59274;49.874;9.154;2024-01-06T09:50:20;99551.00;;;6.12;100.00
71465;BME280;59274;49.874;9.154;2024-01-06T09:52:47;99551.44;;;6.14;100.00
71465;BME280;59274;49.874;9.154;2024-01-06T09:55:23;99555.59;;;6.31;100.00
71465;BME280;59274;49.874;9.154;2024-01-06T09:57:49;99560.25;;;6.34;100.00
71465;BME280;59274;49.874;9.154;2024-01-06T10:00:15;99560.34;;;6.41;100.00
71465;BME280;59274;49.874;9.154;2024-01-06T10:02:42;99566.06;;;6.59;100.00
71465;BME280;59274;49.874;9.154;2024-01-06T10:05:08;99564.97;;;6.63;100.00
71465;BME280;59274;49.874;9.154;2024-01-06T10:07:35;99559.41;;;6.53;100.00
71465;BME280;59274;49.874;9.154;2024-01-06T10:10:00;99568.78;;;6.62;100.00
71465;BME280;59274;49.874;9.154;2024-01-06T10:12:26;99572.28;;;6.63;100.00
71465;BME280;59274;49.874;9.154;2024-01-06T10:14:52;99571.31;;;6.75;100.00
71465;BME280;59274;49.874;9.154;2024-01-06T10:17:17;99565.03;;;6.93;100.00
71465;BME280;59274;49.874;9.154;2024-01-06T10:19:46;99566.03;;;6.82;100.00
71465;BME280;59274;49.874;9.154;2024-01-06T10:22:13;99566.22;;;6.96;100.00
71465;BME280;59274;49.874;9.154;2024-01-06T10:24:38;99563.91;;;6.98;100.00
71465;BME280;59274;49.874;9.154;2024-01-06T10:27:04;99568.97;;;6.73;100.00
71465;BME280;59274;49.874;9.154;2024-01-06T10:29:29;99566.13;;;6.89;100.00
71465;BME280;59274;49.874;9.154;2024-01-06T10:31:55;99571.72;;;7.03;100.00
71465;BME280;59274;49.874;9.154;2024-01-06T10:34:21;99564.88;;;7.09;100.00
71465;BME280;59274;49.874;9.154;2024-01-06T10:36:47;99571.41;;;7.08;100.00
71465;BME280;59274;49.874;9.154;2024-01-06T10:39:14;99564.00;;;7.31;100.00
71465;BME280;59274;49.874;9.154;2024-01-06T10:41:41;99562.75;;;7.25;100.00
71465;BME280;59274;49.874;9.154;2024-01-06T10:44:09;99556.38;;;7.40;100.00
71465;BME280;59274;49.874;9.154;2024-01-06T10:46:36;99561.88;;;7.47;100.00
71465;BME280;59274;49.874;9.154;2024-01-06T10:49:02;99558.09;;;7.52;100.00
71465;BME280;59274;49.874;9.154;2024-01-06T10:51:31;99552.59;;;7.45;100.00
71465;BME280;59274;49.874;9.154;2024-01-06T10:54:00;99558.03;;;7.19;100.00
71465;BME280;59274;49.874;9.154;2024-01-06T10:56:26;99552.25;;;7.17;100.00
71465;BME280;59274;49.874;9.154;2024-01-06T10:58:53;99550.03;;;7.26;100.00
71465;BME280;59274;49.874;9.154;2024-01-06T11:01:23;99551.69;;;7.34;100.00
71465;BME280;59274;49.874;9.154;2024-01-06T11:03:53;99554.00;;;7.35;100.00
71465;BME280;59274;49.874;9.154;2024-01-06T11:06:20;99551.13;;;7.51;100.00
71465;BME280;59274;49.874;9.154;2024-01-06T11:11:30;99550.63;;;7.75;100.00
71465;BME280;59274;49.874;9.154;2024-01-06T11:16:44;99549.09;;;7.78;100.00
71465;BME280;59274;49.874;9.154;2024-01-06T11:22:19;99546.88;;;7.50;100.00
71465;BME280;59274;49.874;9.154;2024-01-06T11:24:49;99546.94;;;7.57;100.00
71465;BME280;59274;49.874;9.154;2024-01-06T11:27:20;99544.84;;;7.77;100.00
71465;BME280;59274;49.874;9.154;2024-01-06T11:29:47;99543.88;;;7.59;100.00
71465;BME280;59274;49.874;9.154;2024-01-06T11:32:17;99540.25;;;7.47;100.00
71465;BME280;59274;49.874;9.154;2024-01-06T11:34:55;99541.88;;;7.52;100.00
71465;BME280;59274;49.874;9.154;2024-01-06T11:37:35;99542.75;;;7.60;100.00
71465;BME280;59274;49.874;9.154;2024-01-06T11:40:15;99541.53;;;7.57;100.00
71465;BME280;59274;49.874;9.154;2024-01-06T11:42:42;99542.44;;;7.68;100.00
71465;BME280;59274;49.874;9.154;2024-01-06T11:45:08;99541.00;;;7.78;100.00
71465;BME280;59274;49.874;9.154;2024-01-06T11:47:36;99537.94;;;7.83;100.00
71465;BME280;59274;49.874;9.154;2024-01-06T11:50:03;99535.94;;;7.73;100.00
71465;BME280;59274;49.874;9.154;2024-01-06T11:52:31;99534.88;;;7.84;100.00
71465;BME280;59274;49.874;9.154;2024-01-06T11:54:56;99526.00;;;7.84;100.00
71465;BME280;59274;49.874;9.154;2024-01-06T11:57:22;99529.53;;;7.88;100.00
71465;BME280;59274;49.874;9.154;2024-01-06T11:59:48;99522.28;;;7.99;100.00
71465;BME280;59274;49.874;9.154;2024-01-06T12:02:17;99522.00;;;8.08;100.00
71465;BME280;59274;49.874;9.154;2024-01-06T12:04:50;99526.28;;;8.12;100.00
71465;BME280;59274;49.874;9.154;2024-01-06T12:07:16;99526.69;;;8.14;100.00
71465;BME280;59274;49.874;9.154;2024-01-06T12:09:42;99526.44;;;8.30;100.00
71465;BME280;59274;49.874;9.154;2024-01-06T12:12:08;99526.44;;;8.30;100.00
71465;BME280;59274;49.874;9.154;2024-01-06T12:14:34;99520.41;;;8.44;100.00
71465;BME280;59274;49.874;9.154;2024-01-06T12:17:00;99524.56;;;8.34;100.00
71465;BME280;59274;49.874;9.154;2024-01-06T12:19:32;99517.91;;;8.28;100.00
71465;BME280;59274;49.874;9.154;2024-01-06T12:21:57;99522.91;;;8.26;100.00
71465;BME280;59274;49.874;9.154;2024-01-06T12:24:23;99529.50;;;8.29;100.00
71465;BME280;59274;49.874;9.154;2024-01-06T12:26:52;99520.56;;;8.21;100.00
71465;BME280;59274;49.874;9.154;2024-01-06T12:29:18;99521.63;;;8.13;100.00
71465;BME280;59274;49.874;9.154;2024-01-06T12:31:44;99520.13;;;8.15;100.00
71465;BME280;59274;49.874;9.154;2024-01-06T12:34:10;99523.88;;;8.04;100.00
71465;BME280;59274;49.874;9.154;2024-01-06T12:36:40;99524.19;;;7.95;100.00
71465;BME280;59274;49.874;9.154;2024-01-06T12:39:10;99516.09;;;7.95;100.00
71465;BME280;59274;49.874;9.154;2024-01-06T12:41:39;99524.94;;;7.92;100.00
71465;BME280;59274;49.874;9.154;2024-01-06T12:44:06;99530.25;;;7.85;100.00
71465;BME280;59274;49.874;9.154;2024-01-06T12:46:32;99518.25;;;7.82;100.00
71465;BME280;59274;49.874;9.154;2024-01-06T12:48:58;99525.00;;;7.62;100.00
71465;BME280;59274;49.874;9.154;2024-01-06T12:51:23;99528.81;;;7.58;100.00
71465;BME280;59274;49.874;9.154;2024-01-06T12:53:49;99524.06;;;7.47;100.00
71465;BME280;59274;49.874;9.154;2024-01-06T12:56:15;99525.59;;;7.45;100.00
71465;BME280;59274;49.874;9.154;2024-01-06T12:58:41;99534.31;;;7.35;100.00
71465;BME280;59274;49.874;9.154;2024-01-06T13:01:06;99535.34;;;7.23;100.00
71465;BME280;59274;49.874;9.154;2024-01-06T13:03:32;99534.31;;;7.35;100.00